createdAt,value
2022-12-09T00:02:33.251Z,19.20
2022-12-09T00:05:34.815Z,19.10
2022-12-09T00:08:37.465Z,18.90
2022-12-09T00:11:39.739Z,18.90
2022-12-09T00:14:41.245Z,19.30
2022-12-09T00:17:42.858Z,19.20
2022-12-09T00:20:44.425Z,19.20
2022-12-09T00:23:47.360Z,18.90
2022-12-09T00:26:48.929Z,19.10
2022-12-09T00:29:50.158Z,19.40
2022-12-09T00:32:51.647Z,19.10
2022-12-09T00:35:52.939Z,19.10
2022-12-09T00:38:56.345Z,19.20
2022-12-09T00:41:57.744Z,18.90
2022-12-09T00:44:59.304Z,19.10
2022-12-09T00:48:00.635Z,18.80
2022-12-09T00:51:02.335Z,19.50
2022-12-09T00:54:05.342Z,19.00
2022-12-09T00:57:07.038Z,19.00
2022-12-09T01:00:10.172Z,19.20
2022-12-09T01:03:13.639Z,19.10
2022-12-09T01:06:18.671Z,19.10
2022-12-09T01:09:21.899Z,19.20
2022-12-09T01:12:23.327Z,19.00
2022-12-09T01:15:25.039Z,19.20
2022-12-09T01:18:26.416Z,18.80
2022-12-09T01:21:29.622Z,18.90
2022-12-09T01:24:31.897Z,18.90
2022-12-09T01:27:33.353Z,19.30
2022-12-09T01:30:34.916Z,19.30
2022-12-09T01:33:36.198Z,19.10
2022-12-09T01:36:37.959Z,19.40
2022-12-09T01:39:40.529Z,18.90
2022-12-09T01:42:42.481Z,19.10
2022-12-09T01:45:44.316Z,19.20
2022-12-09T01:48:46.566Z,19.00
2022-12-09T01:51:55.770Z,19.10
2022-12-09T01:54:58.453Z,19.20
2022-12-09T01:58:00.327Z,19.30
2022-12-09T02:01:02.247Z,19.10
2022-12-09T02:04:04.711Z,19.00
2022-12-09T02:07:09.494Z,19.00
2022-12-09T02:10:14.566Z,19.00
2022-12-09T02:13:30.096Z,19.30
2022-12-09T02:16:40.789Z,19.20
2022-12-09T02:20:00.612Z,19.20
2022-12-09T02:23:09.339Z,19.30
2022-12-09T02:26:22.091Z,18.80
2022-12-09T02:29:50.551Z,19.20
2022-12-09T02:33:20.322Z,19.00
2022-12-09T02:36:27.163Z,19.30
2022-12-09T02:39:35.404Z,19.00
2022-12-09T02:42:38.602Z,19.30
2022-12-09T02:45:42.930Z,19.10
2022-12-09T02:48:50.920Z,18.90
2022-12-09T02:51:54.429Z,19.40
2022-12-09T02:54:59.606Z,19.20
2022-12-09T02:58:02.202Z,18.90
2022-12-09T03:01:20.438Z,19.00
2022-12-09T03:04:25.489Z,19.20
2022-12-09T03:07:34.741Z,19.30
2022-12-09T03:10:40.599Z,19.10
2022-12-09T03:13:50.722Z,18.70
2022-12-09T03:16:57.997Z,18.90
2022-12-09T03:20:05.299Z,19.20
2022-12-09T03:23:11.009Z,18.80
2022-12-09T03:26:15.414Z,18.80
2022-12-09T03:29:20.058Z,18.80
2022-12-09T03:32:26.176Z,18.90
2022-12-09T03:35:31.480Z,19.10
2022-12-09T03:38:37.904Z,19.10
2022-12-09T03:41:45.284Z,19.10
2022-12-09T03:44:51.150Z,19.10
2022-12-09T03:47:53.096Z,19.20
2022-12-09T03:50:59.476Z,19.20
2022-12-09T03:54:08.707Z,18.90
2022-12-09T03:57:18.532Z,19.30
2022-12-09T04:00:21.007Z,19.10
2022-12-09T04:03:22.724Z,18.50
2022-12-09T04:06:24.321Z,18.60
2022-12-09T04:09:26.309Z,18.90
2022-12-09T04:12:27.735Z,19.80
2022-12-09T04:15:29.394Z,18.80
2022-12-09T04:18:30.821Z,19.00
2022-12-09T04:21:33.022Z,18.80
2022-12-09T04:24:35.032Z,19.00
2022-12-09T04:27:36.920Z,19.20
2022-12-09T04:30:38.439Z,19.00
2022-12-09T04:33:40.602Z,19.20
2022-12-09T04:36:42.028Z,19.00
2022-12-09T04:39:44.212Z,19.20
2022-12-09T04:42:46.115Z,19.00
2022-12-09T04:45:47.521Z,19.00
2022-12-09T04:48:49.408Z,18.90
2022-12-09T04:51:51.018Z,18.90
2022-12-09T04:54:53.297Z,19.10
2022-12-09T04:57:54.857Z,19.20
2022-12-09T05:00:56.685Z,18.70
2022-12-09T05:03:59.538Z,19.20
2022-12-09T05:07:01.593Z,19.20
2022-12-09T05:10:05.094Z,19.10
2022-12-09T05:13:06.715Z,19.10
2022-12-09T05:16:15.596Z,19.30
2022-12-09T05:19:18.698Z,19.10
2022-12-09T05:22:20.603Z,19.30
2022-12-09T05:25:22.789Z,18.70
2022-12-09T05:28:24.746Z,18.80
2022-12-09T05:31:26.299Z,19.20
2022-12-09T05:34:28.695Z,18.70
2022-12-09T05:37:30.776Z,18.90
2022-12-09T05:40:33.047Z,19.10
2022-12-09T05:43:36.216Z,19.10
2022-12-09T05:46:37.692Z,19.10
2022-12-09T05:49:39.954Z,18.80
2022-12-09T05:52:41.594Z,19.10
2022-12-09T05:55:43.688Z,19.10
2022-12-09T05:58:46.288Z,18.90
2022-12-09T06:01:47.775Z,19.00
2022-12-09T06:04:49.719Z,19.00
2022-12-09T06:07:51.411Z,19.10
2022-12-09T06:10:53.811Z,19.20
2022-12-09T06:13:55.613Z,19.10
2022-12-09T06:16:57.319Z,18.90
2022-12-09T06:19:59.196Z,19.00
2022-12-09T06:23:00.755Z,18.90
2022-12-09T06:26:04.896Z,19.10
2022-12-09T06:29:07.035Z,19.20
2022-12-09T06:32:08.655Z,19.20
2022-12-09T06:35:11.158Z,18.90
2022-12-09T06:38:13.009Z,18.80
2022-12-09T06:41:16.225Z,19.20
2022-12-09T06:44:23.444Z,19.20
2022-12-09T06:47:25.986Z,19.00
2022-12-09T06:50:27.993Z,18.60
2022-12-09T06:53:29.421Z,18.80
2022-12-09T06:56:32.873Z,19.50
2022-12-09T06:59:34.615Z,19.00
2022-12-09T07:02:37.345Z,19.10
2022-12-09T07:05:39.493Z,18.80
2022-12-09T07:08:41.825Z,19.10
2022-12-09T07:11:45.624Z,19.00
2022-12-09T07:14:47.430Z,18.70
2022-12-09T07:17:49.071Z,19.10
2022-12-09T07:20:50.649Z,19.20
2022-12-09T07:23:52.624Z,19.30
2022-12-09T07:26:55.118Z,19.40
2022-12-09T07:29:57.331Z,19.20
2022-12-09T07:32:59.244Z,19.20
2022-12-09T07:36:01.153Z,19.40
2022-12-09T07:39:05.379Z,19.30
2022-12-09T07:42:07.690Z,19.20
2022-12-09T07:45:20.263Z,19.10
2022-12-09T07:48:21.969Z,18.80
2022-12-09T07:51:25.065Z,18.90
2022-12-09T07:54:27.086Z,18.70
2022-12-09T07:57:29.229Z,18.80
2022-12-09T08:00:31.019Z,18.60
2022-12-09T08:03:32.637Z,19.00
2022-12-09T08:06:36.035Z,19.20
2022-12-09T08:09:37.758Z,18.70
2022-12-09T08:12:40.080Z,19.30
2022-12-09T08:15:42.192Z,19.40
2022-12-09T08:18:44.817Z,18.90
2022-12-09T08:21:52.872Z,19.60
2022-12-09T08:24:57.311Z,19.70
2022-12-09T08:27:59.641Z,19.40
2022-12-09T08:31:07.732Z,19.70
2022-12-09T08:34:10.043Z,19.70
2022-12-09T08:37:12.162Z,19.40
2022-12-09T08:40:14.344Z,19.50
2022-12-09T08:43:17.260Z,19.70
2022-12-09T08:46:18.823Z,20.00
2022-12-09T08:49:22.661Z,18.90
2022-12-09T08:52:25.444Z,19.40
2022-12-09T08:55:27.157Z,19.60
2022-12-09T08:58:30.199Z,20.00
2022-12-09T09:01:34.371Z,19.50
2022-12-09T09:07:39.767Z,19.90
2022-12-09T09:10:41.610Z,19.90
2022-12-09T09:13:46.045Z,19.70
2022-12-09T09:16:48.173Z,19.80
2022-12-09T09:19:50.483Z,19.50
2022-12-09T09:22:55.140Z,19.70
2022-12-09T09:25:59.913Z,19.80
2022-12-09T09:29:02.112Z,19.60
2022-12-09T09:35:07.156Z,19.70
2022-12-09T09:38:12.049Z,19.70
2022-12-09T09:41:23.297Z,19.40
2022-12-09T09:44:30.407Z,19.90
2022-12-09T09:47:38.902Z,19.60
2022-12-09T09:50:49.841Z,20.10
2022-12-09T09:53:53.266Z,19.60
2022-12-09T09:57:01.493Z,20.00
2022-12-09T10:00:14.834Z,19.80
2022-12-09T10:03:39.497Z,20.00
2022-12-09T10:06:46.776Z,19.80
2022-12-09T10:09:58.982Z,19.70
2022-12-09T10:13:17.866Z,20.00
2022-12-09T10:16:26.146Z,19.90
2022-12-09T10:19:32.927Z,20.00
2022-12-09T10:22:42.430Z,20.10
2022-12-09T10:25:48.199Z,20.20
2022-12-09T10:28:56.829Z,19.90
2022-12-09T10:31:59.237Z,20.20
2022-12-09T10:35:11.613Z,20.00
2022-12-09T10:38:16.275Z,20.30
2022-12-09T10:41:48.206Z,19.90
2022-12-09T10:44:49.849Z,19.70
2022-12-09T10:47:53.062Z,19.50
2022-12-09T10:50:56.831Z,20.10
2022-12-09T10:54:00.994Z,20.20
2022-12-09T10:57:07.294Z,20.10
2022-12-09T11:00:21.668Z,20.20
2022-12-09T11:03:26.625Z,19.90
2022-12-09T11:06:33.225Z,20.40
2022-12-09T11:09:37.601Z,20.50
2022-12-09T11:12:41.446Z,20.10
2022-12-09T11:15:49.655Z,20.50
2022-12-09T11:18:52.218Z,20.20
2022-12-09T11:22:13.637Z,20.30
2022-12-09T11:25:23.041Z,20.50
2022-12-09T11:28:28.383Z,20.40
2022-12-09T11:31:38.098Z,20.10
2022-12-09T11:34:45.615Z,20.00
2022-12-09T11:37:48.034Z,20.40
2022-12-09T11:41:01.271Z,20.60
2022-12-09T11:44:18.025Z,20.40
2022-12-09T11:47:26.991Z,20.40
2022-12-09T11:50:31.964Z,20.30
2022-12-09T11:53:38.821Z,20.20
2022-12-09T11:56:49.854Z,20.20
2022-12-09T11:59:55.791Z,20.40
2022-12-09T12:03:03.870Z,20.00
2022-12-09T12:06:11.436Z,20.40
2022-12-09T12:09:19.015Z,20.20
2022-12-09T12:12:27.175Z,20.50
2022-12-09T12:15:37.803Z,20.00
2022-12-09T12:18:44.702Z,20.30
2022-12-09T12:22:02.447Z,20.50
2022-12-09T12:25:22.981Z,20.80
2022-12-09T12:28:46.069Z,20.50
2022-12-09T12:32:03.473Z,20.20
2022-12-09T12:35:20.660Z,20.10
2022-12-09T12:38:34.885Z,20.30
2022-12-09T12:41:45.673Z,20.10
2022-12-09T12:45:09.996Z,20.00
2022-12-09T12:48:17.664Z,19.80
2022-12-09T12:51:30.442Z,20.40
2022-12-09T12:54:44.727Z,20.20
2022-12-09T12:57:55.672Z,20.10
2022-12-09T13:01:02.688Z,20.00
2022-12-09T13:04:16.784Z,20.10
2022-12-09T13:07:28.518Z,20.40
2022-12-09T13:10:35.899Z,20.30
2022-12-09T13:13:42.082Z,20.80
2022-12-09T13:16:45.432Z,20.00
2022-12-09T13:19:50.598Z,20.50
2022-12-09T13:22:57.515Z,20.40
2022-12-09T13:26:12.715Z,20.60
2022-12-09T13:29:29.296Z,20.50
2022-12-09T13:32:54.831Z,20.60
2022-12-09T13:36:06.233Z,20.70
2022-12-09T13:39:11.274Z,20.70
2022-12-09T13:42:50.159Z,20.90
2022-12-09T13:45:55.534Z,21.00
2022-12-09T13:48:57.070Z,20.60
2022-12-09T13:51:58.646Z,21.00
2022-12-09T13:55:00.119Z,20.60
2022-12-09T13:58:12.952Z,20.50
2022-12-09T14:01:21.244Z,20.80
2022-12-09T14:04:25.860Z,21.10
2022-12-09T14:07:33.829Z,20.90
2022-12-09T14:10:40.636Z,20.90
2022-12-09T14:13:42.700Z,20.90
2022-12-09T14:16:44.397Z,21.00
2022-12-09T14:19:52.971Z,21.10
2022-12-09T14:23:12.138Z,20.90
2022-12-09T14:26:33.470Z,20.70
2022-12-09T14:29:51.757Z,20.90
2022-12-09T14:32:54.595Z,20.80
2022-12-09T14:36:02.145Z,20.50
2022-12-09T14:39:29.617Z,20.60
2022-12-09T14:42:41.866Z,20.70
2022-12-09T14:45:49.314Z,20.40
2022-12-09T14:48:57.009Z,20.70
2022-12-09T14:52:00.801Z,20.80
2022-12-09T14:55:06.484Z,18.70
2022-12-09T14:58:18.289Z,21.00
2022-12-09T15:01:20.328Z,20.60
2022-12-09T15:04:24.730Z,20.60
2022-12-09T15:07:27.983Z,21.00
2022-12-09T15:10:33.841Z,21.00
2022-12-09T15:13:36.601Z,20.70
2022-12-09T15:16:46.276Z,21.10
2022-12-09T15:20:00.102Z,21.10
2022-12-09T15:23:03.742Z,21.10
2022-12-09T15:26:07.269Z,21.30
2022-12-09T15:29:19.531Z,20.60
2022-12-09T15:32:24.719Z,21.10
2022-12-09T15:35:28.376Z,20.90
2022-12-09T15:38:40.418Z,20.50
2022-12-09T15:41:58.780Z,20.90
2022-12-09T15:45:06.469Z,21.00
2022-12-09T15:48:13.179Z,21.00
2022-12-09T15:51:18.605Z,20.60
2022-12-09T15:54:24.318Z,20.80
2022-12-09T15:57:28.576Z,20.90
2022-12-09T16:03:34.109Z,20.80
2022-12-09T16:06:37.068Z,20.50
2022-12-09T16:09:39.504Z,20.50
2022-12-09T16:12:42.707Z,20.80
2022-12-09T16:15:50.755Z,20.50
2022-12-09T16:18:54.185Z,20.70
2022-12-09T16:21:58.974Z,20.90
2022-12-09T16:25:15.683Z,20.60
2022-12-09T16:28:22.040Z,20.80
2022-12-09T16:31:23.713Z,20.80
2022-12-09T16:34:26.631Z,20.70
2022-12-09T16:37:35.114Z,20.50
2022-12-09T16:41:01.524Z,20.90
2022-12-09T16:44:17.064Z,21.00
2022-12-09T16:47:23.343Z,20.90
2022-12-09T16:50:29.614Z,20.90
2022-12-09T16:53:36.871Z,20.70
2022-12-09T16:56:38.310Z,20.40
2022-12-09T16:59:40.268Z,20.60
2022-12-09T17:02:48.674Z,20.30
2022-12-09T17:05:50.657Z,20.30
2022-12-09T17:08:52.100Z,20.30
2022-12-09T17:11:53.514Z,20.40
2022-12-09T17:14:54.967Z,20.20
2022-12-09T17:17:56.344Z,20.40
2022-12-09T17:21:01.033Z,19.90
2022-12-09T17:24:02.722Z,19.90
2022-12-09T17:30:07.027Z,20.30
2022-12-09T17:36:12.749Z,19.90
2022-12-09T17:39:14.799Z,19.70
2022-12-09T17:45:18.205Z,19.70
2022-12-09T17:48:19.573Z,19.90
2022-12-09T17:51:21.869Z,19.80
2022-12-09T18:06:51.748Z,19.60
2022-12-09T18:16:11.390Z,19.50
2022-12-09T18:19:15.648Z,19.50
2022-12-09T18:22:17.638Z,19.40
2022-12-09T18:31:24.170Z,19.20
2022-12-09T18:34:27.585Z,19.60
2022-12-09T18:37:29.894Z,19.30
2022-12-09T18:43:37.782Z,19.40
2022-12-09T18:46:42.485Z,19.20
2022-12-09T18:52:46.305Z,19.20
2022-12-09T19:02:10.743Z,19.20
2022-12-09T19:05:12.331Z,19.00
2022-12-09T19:08:14.209Z,19.80
2022-12-09T19:11:15.541Z,19.30
2022-12-09T19:14:19.031Z,19.00
2022-12-09T19:20:24.409Z,18.80
2022-12-09T19:23:26.387Z,19.10
2022-12-09T19:26:30.375Z,18.90
2022-12-09T19:29:31.945Z,18.80
2022-12-09T19:38:58.198Z,19.00
2022-12-09T19:42:00.815Z,18.90
2022-12-09T19:51:13.484Z,18.90
2022-12-09T19:54:16.456Z,18.90
2022-12-09T20:06:24.419Z,18.90
2022-12-09T20:09:26.492Z,18.90
2022-12-09T20:24:36.614Z,18.70
2022-12-09T20:36:44.945Z,18.80
2022-12-09T20:39:46.906Z,18.70
2022-12-09T20:54:56.633Z,18.70
2022-12-09T21:01:05.008Z,18.80
2022-12-09T21:04:07.739Z,18.70
2022-12-09T21:10:11.779Z,18.70
2022-12-09T21:16:19.169Z,18.60
2022-12-09T21:19:24.058Z,18.70
2022-12-09T21:25:32.288Z,18.60
2022-12-09T21:28:34.478Z,18.70
2022-12-09T21:31:38.872Z,18.60
2022-12-09T21:40:47.908Z,18.60
2022-12-09T21:56:02.206Z,18.50
2022-12-09T21:59:05.675Z,18.60
2022-12-09T22:11:15.219Z,18.60
2022-12-09T22:26:45.093Z,18.50
2022-12-09T22:41:56.887Z,18.50
2022-12-09T22:51:03.106Z,18.50
2022-12-09T22:54:07.239Z,18.50
2022-12-09T22:57:09.351Z,18.40
2022-12-09T23:00:12.016Z,18.40
2022-12-09T23:09:19.976Z,18.50
2022-12-09T23:12:21.954Z,18.50
2022-12-09T23:21:28.521Z,18.70
2022-12-09T23:27:32.546Z,18.70
2022-12-09T23:33:37.078Z,18.80
2022-12-09T23:36:40.745Z,18.70
2022-12-09T23:42:44.483Z,19.00
2022-12-09T23:48:50.092Z,19.20
2022-12-09T23:57:55.463Z,19.10
